Bruksela, Belgia

20:55 CEST dnia 25-październik-2014 (GMT +0200)
Berg | Change Station
CLOSE
Current Station
Stacja PWS
Location: Kampenhout, VLAAMS BRABANT
n.p.m.: 54 ft
Najbliższa stacja pogodowa

Wysokość 54 ft 50.93 °N, 4.53 °E | Updated 3 minutes ago

Overcast
pochmurno
53.6 ° F
Odczuwalna 53.6 ° F
Płn.
0.0
Wiatr zmienny Wiatr od zachodni
Gusts 3.0 mph

Dziś
Wysoka -- | Niska -- ° F
--% Prawdop. opadów
Wczoraj
Wysoka -- | Niska -- ° F
Precip. -- cali
8:21 AM 6:29 PM
Powiększający się sierp Księżyca, 4% visible
Ciśnienie 30.18 cali
Widzialność 6.2 mil
chmury pochmurno 4100 ft
Punkt rosy 50 ° F
Wilgotność 86%
Opady deszczu 0.05 cali
grubość pokrywy śnieżnej Niedostępne.
UV 0.0 z 12
Pyłki Niedostępne.
Jakość powietrza Niedostępne.
Flu Activity Niedostępne.
METAR EBBE 251825Z AUTO 19003KT 9999 OVC041/// 12/09 Q1022 BLU

More Conditions Fewer Conditions

Ciśnienie 30.18 cali
Widzialność 6.2 mil
chmury pochmurno 4100 ft
Punkt rosy 50 ° F
Wilgotność 86%
Opady deszczu 0.05 cali
grubość pokrywy śnieżnej Niedostępne.
UV 0.0 z 12
Pyłki Niedostępne.
Jakość powietrza Niedostępne.
Flu Activity Niedostępne.
METAR EBBE 251825Z AUTO 19003KT 9999 OVC041/// 12/09 Q1022 BLU

More Conditions Fewer Conditions

10-Day Weather Forecast

Almanac

Astronomia

Oct. 25, 2014 Wschód Zachów
Aktualny czas 08:21 CEST 18:29 CEST
Zmierzch cywilny 07:47 CEST 19:03 CEST
Zmierzch żeglarski 07:08 CEST 19:42 CEST
świt/zmierzch astronomiczny 06:30 CEST 20:20 CEST
Księżyc 09:52 CEST 19:32 CEST
całkowite oświetlenie 11h 16m
Długość dnia
10h 08m
Tomorrow will be 3m 37s shorter.
Powiększający się sierp Księżyca, 4% of the Moon is Illuminated
Dziś
Powiększający się sierp Księżyca
Październik 30
Pierwsza kwadra
Listopad 6
Pełnia Księżyca
Listopad 14
Ostatnia kwadra
Listopad 22
Nowy

Dzisiejsze ekstrema

Country Highs Country Lows

Community

WunderPhotos

Upload Photos

1,764,954 zdjęcia zostały przesłane!

Nearby

Jakość powietrza

Not available.

Głębokość pokrywy śnieżnej

Not available.

Aktywność sejsmiczna

Miejscowość Distance Mag. Time & Date
No recent earthquake activity has been reported nearby.
Minimum magnitude displayed is 2.5.

Temperatury wody na wybrzeżu

Miejsce Temperatura
Nie znaleziono stacji

Najbliższa stacja pogodowa